EZY29K EGAC-EGKK
Flight info
| Callsign | EZY29K |
|---|---|
| Flight time | 0h 57m |
| Altitude | 25000 |
| Route | DUFFY L15 PEPOD Q38 MALUD L15 KEPAD L151 DISIT |
| Aircraft | A332/H-SDE3GHIJ2J3J5M1RVWXY/LB2D1 |
Departure
| Time | 2026-04-15 12:53 |
|---|---|
| Airport | George Best Belfast City Airport (EGAC) |
Arrival
| Time | 2026-04-15 13:51 |
|---|---|
| Airport | London Gatwick Airport (EGKK) |
| Time | Latitude | Longitude | Altitude | Speed | Heading |
|---|---|---|---|---|---|
| 2026-04-15 12:39 | 54.61433 | -5.87219 | 23 ft | 0 kts | 124° |
| 2026-04-15 12:45 | 54.61435 | -5.87222 | 23 ft | 1 kts | 121° |
| 2026-04-15 12:45 | 54.61437 | -5.87229 | 23 ft | 1 kts | 121° |
| 2026-04-15 12:45 | 54.61440 | -5.87236 | 23 ft | 1 kts | 121° |
| 2026-04-15 12:45 | 54.61442 | -5.87243 | 23 ft | 1 kts | 121° |
| 2026-04-15 12:46 | 54.61445 | -5.87251 | 28 ft | 1 kts | 121° |
| 2026-04-15 12:46 | 54.61449 | -5.87262 | 29 ft | 1 kts | 121° |
| 2026-04-15 12:46 | 54.61453 | -5.87273 | 29 ft | 1 kts | 121° |
| 2026-04-15 12:46 | 54.61458 | -5.87285 | 29 ft | 1 kts | 154° |
| 2026-04-15 12:47 | 54.61468 | -5.87289 | 27 ft | 1 kts | 191° |
| 2026-04-15 12:47 | 54.61477 | -5.87284 | 28 ft | 0 kts | 217° |
| 2026-04-15 12:48 | 54.61473 | -5.87289 | 26 ft | 2 kts | 217° |
| 2026-04-15 12:48 | 54.61434 | -5.87339 | 24 ft | 12 kts | 218° |
| 2026-04-15 12:49 | 54.61313 | -5.87527 | 25 ft | 23 kts | 214° |
| 2026-04-15 12:49 | 54.61213 | -5.87647 | 27 ft | 29 kts | 214° |
| 2026-04-15 12:49 | 54.61084 | -5.87860 | 26 ft | 18 kts | 265° |
| 2026-04-15 12:49 | 54.61115 | -5.87976 | 23 ft | 8 kts | 309° |
| 2026-04-15 12:50 | 54.61148 | -5.88017 | 24 ft | 6 kts | 348° |
| 2026-04-15 12:50 | 54.61215 | -5.87963 | 22 ft | 19 kts | 34° |
| 2026-04-15 12:50 | 54.61381 | -5.87762 | 21 ft | 39 kts | 35° |
| 2026-04-15 12:50 | 54.61652 | -5.87422 | 25 ft | 54 kts | 35° |
| 2026-04-15 12:51 | 54.61938 | -5.87086 | 27 ft | 46 kts | 33° |
| 2026-04-15 12:51 | 54.62188 | -5.86802 | 25 ft | 39 kts | 33° |
| 2026-04-15 12:51 | 54.62388 | -5.86550 | 25 ft | 29 kts | 41° |
| 2026-04-15 12:51 | 54.62471 | -5.86477 | 23 ft | 1 kts | 282° |
| 2026-04-15 12:52 | 54.62469 | -5.86480 | 23 ft | 1 kts | 253° |
| 2026-04-15 12:52 | 54.62453 | -5.86490 | 24 ft | 9 kts | 200° |
| 2026-04-15 12:52 | 54.62340 | -5.86614 | 24 ft | 34 kts | 215° |
| 2026-04-15 12:52 | 54.62012 | -5.87004 | 25 ft | 80 kts | 214° |
| 2026-04-15 12:53 | 54.61436 | -5.87683 | 22 ft | 121 kts | 212° |
| 2026-04-15 12:53 | 54.60687 | -5.88533 | 354 ft | 125 kts | 205° |
| 2026-04-15 12:53 | 54.59879 | -5.88939 | 649 ft | 129 kts | 185° |
| 2026-04-15 12:53 | 54.58893 | -5.89108 | 782 ft | 152 kts | 181° |
| 2026-04-15 12:54 | 54.57817 | -5.88520 | 968 ft | 173 kts | 152° |
| 2026-04-15 12:54 | 54.56710 | -5.87483 | 1107 ft | 194 kts | 160° |
| 2026-04-15 12:54 | 54.55334 | -5.86696 | 1323 ft | 223 kts | 169° |
| 2026-04-15 12:54 | 54.53730 | -5.86200 | 1706 ft | 246 kts | 171° |
| 2026-04-15 12:55 | 54.52024 | -5.85209 | 2194 ft | 269 kts | 159° |
| 2026-04-15 12:55 | 54.50291 | -5.83692 | 2685 ft | 290 kts | 155° |
| 2026-04-15 12:55 | 54.48500 | -5.81863 | 3150 ft | 309 kts | 152° |
| 2026-04-15 12:55 | 54.46642 | -5.79824 | 3608 ft | 326 kts | 150° |
| 2026-04-15 12:56 | 54.44716 | -5.77611 | 4070 ft | 343 kts | 149° |
| 2026-04-15 12:56 | 54.42703 | -5.75234 | 4548 ft | 358 kts | 149° |
| 2026-04-15 12:56 | 54.40603 | -5.72725 | 5020 ft | 372 kts | 148° |
| 2026-04-15 12:56 | 54.38460 | -5.70157 | 5492 ft | 384 kts | 148° |
| 2026-04-15 12:57 | 54.36242 | -5.67506 | 5943 ft | 395 kts | 148° |
| 2026-04-15 12:57 | 54.33957 | -5.64784 | 6400 ft | 406 kts | 149° |
| 2026-04-15 12:57 | 54.31578 | -5.61973 | 6859 ft | 414 kts | 149° |
| 2026-04-15 12:57 | 54.29374 | -5.59141 | 7282 ft | 379 kts | 142° |
| 2026-04-15 12:58 | 54.27586 | -5.56115 | 7730 ft | 354 kts | 137° |
| 2026-04-15 12:58 | 54.25937 | -5.52969 | 8197 ft | 360 kts | 135° |
| 2026-04-15 12:58 | 54.24323 | -5.49648 | 8670 ft | 368 kts | 133° |
| 2026-04-15 12:58 | 54.22716 | -5.46154 | 9153 ft | 372 kts | 132° |
| 2026-04-15 12:59 | 54.19631 | -5.39024 | 10072 ft | 376 kts | 130° |
| 2026-04-15 12:59 | 54.18105 | -5.35373 | 10515 ft | 378 kts | 130° |
| 2026-04-15 12:59 | 54.16585 | -5.31725 | 10964 ft | 381 kts | 130° |
| 2026-04-15 13:00 | 54.15027 | -5.27988 | 11410 ft | 384 kts | 131° |
| 2026-04-15 13:00 | 54.13478 | -5.24292 | 11866 ft | 387 kts | 131° |
| 2026-04-15 13:00 | 54.11897 | -5.20548 | 12343 ft | 389 kts | 131° |
| 2026-04-15 13:00 | 54.10314 | -5.16820 | 12821 ft | 391 kts | 132° |
| 2026-04-15 13:01 | 54.08713 | -5.13073 | 13302 ft | 393 kts | 132° |
| 2026-04-15 13:01 | 54.07074 | -5.09253 | 13768 ft | 396 kts | 132° |
| 2026-04-15 13:01 | 54.05449 | -5.05484 | 14217 ft | 397 kts | 133° |
| 2026-04-15 13:01 | 54.03818 | -5.01715 | 14664 ft | 396 kts | 133° |
| 2026-04-15 13:02 | 54.02187 | -4.97962 | 15111 ft | 395 kts | 133° |
| 2026-04-15 13:02 | 54.00549 | -4.94213 | 15571 ft | 395 kts | 133° |
| 2026-04-15 13:02 | 53.98913 | -4.90463 | 16038 ft | 397 kts | 133° |
| 2026-04-15 13:02 | 53.97262 | -4.86636 | 16514 ft | 398 kts | 133° |
| 2026-04-15 13:03 | 53.95635 | -4.82855 | 17008 ft | 399 kts | 133° |
| 2026-04-15 13:03 | 53.94000 | -4.79061 | 17501 ft | 399 kts | 133° |
| 2026-04-15 13:03 | 53.92368 | -4.75284 | 18002 ft | 400 kts | 134° |
| 2026-04-15 13:03 | 53.90700 | -4.71449 | 18422 ft | 401 kts | 133° |
| 2026-04-15 13:04 | 53.89048 | -4.67689 | 18846 ft | 401 kts | 133° |
| 2026-04-15 13:04 | 53.87375 | -4.63888 | 19285 ft | 399 kts | 133° |
| 2026-04-15 13:04 | 53.85702 | -4.60100 | 19741 ft | 399 kts | 133° |
| 2026-04-15 13:04 | 53.84044 | -4.56363 | 20179 ft | 399 kts | 133° |
| 2026-04-15 13:05 | 53.82388 | -4.52605 | 20649 ft | 399 kts | 133° |
| 2026-04-15 13:05 | 53.80723 | -4.48806 | 21108 ft | 399 kts | 132° |
| 2026-04-15 13:05 | 53.79077 | -4.45048 | 21588 ft | 398 kts | 132° |
| 2026-04-15 13:05 | 53.77430 | -4.41294 | 22069 ft | 397 kts | 132° |
| 2026-04-15 13:06 | 53.75792 | -4.37570 | 22574 ft | 395 kts | 131° |
| 2026-04-15 13:06 | 53.74156 | -4.33862 | 23072 ft | 393 kts | 131° |
| 2026-04-15 13:06 | 53.72529 | -4.30186 | 23530 ft | 392 kts | 131° |
| 2026-04-15 13:06 | 53.70906 | -4.26514 | 23960 ft | 390 kts | 132° |
| 2026-04-15 13:07 | 53.69274 | -4.22827 | 24389 ft | 387 kts | 132° |
| 2026-04-15 13:07 | 53.67663 | -4.19202 | 24766 ft | 387 kts | 133° |
| 2026-04-15 13:07 | 53.66038 | -4.15570 | 24879 ft | 391 kts | 133° |
| 2026-04-15 13:07 | 53.64396 | -4.11907 | 24994 ft | 397 kts | 133° |
| 2026-04-15 13:08 | 53.62727 | -4.08175 | 25046 ft | 404 kts | 133° |
| 2026-04-15 13:08 | 53.61007 | -4.04326 | 25069 ft | 412 kts | 133° |
| 2026-04-15 13:08 | 53.59269 | -4.00443 | 25073 ft | 420 kts | 133° |
| 2026-04-15 13:08 | 53.57500 | -3.96496 | 25079 ft | 427 kts | 132° |
| 2026-04-15 13:09 | 53.55701 | -3.92489 | 25090 ft | 435 kts | 132° |
| 2026-04-15 13:09 | 53.53871 | -3.88420 | 25091 ft | 439 kts | 132° |
| 2026-04-15 13:09 | 53.52007 | -3.84276 | 25092 ft | 438 kts | 132° |
| 2026-04-15 13:09 | 53.50182 | -3.80222 | 25089 ft | 435 kts | 132° |
| 2026-04-15 13:10 | 53.48367 | -3.76200 | 25100 ft | 434 kts | 133° |
| 2026-04-15 13:10 | 53.46544 | -3.72179 | 25097 ft | 434 kts | 133° |
| 2026-04-15 13:10 | 53.44694 | -3.68114 | 25108 ft | 435 kts | 133° |
| 2026-04-15 13:10 | 53.42839 | -3.64113 | 25103 ft | 435 kts | 134° |
| 2026-04-15 13:11 | 53.40947 | -3.60212 | 25061 ft | 434 kts | 135° |
| 2026-04-15 13:11 | 53.39016 | -3.56336 | 25094 ft | 433 kts | 136° |
| 2026-04-15 13:11 | 53.37034 | -3.52469 | 25098 ft | 435 kts | 137° |
| 2026-04-15 13:11 | 53.35047 | -3.48670 | 25119 ft | 436 kts | 137° |
| 2026-04-15 13:12 | 53.33073 | -3.44910 | 25121 ft | 435 kts | 137° |
| 2026-04-15 13:12 | 53.31046 | -3.41063 | 25122 ft | 434 kts | 137° |
| 2026-04-15 13:12 | 53.29059 | -3.37298 | 25131 ft | 433 kts | 137° |
| 2026-04-15 13:12 | 53.27058 | -3.33520 | 25132 ft | 433 kts | 137° |
| 2026-04-15 13:13 | 53.25064 | -3.29765 | 25137 ft | 434 kts | 137° |
| 2026-04-15 13:13 | 53.23056 | -3.25994 | 25145 ft | 435 kts | 137° |
| 2026-04-15 13:13 | 53.21052 | -3.22232 | 25151 ft | 434 kts | 137° |
| 2026-04-15 13:13 | 53.19035 | -3.18434 | 25150 ft | 435 kts | 137° |
| 2026-04-15 13:14 | 53.17030 | -3.14662 | 25152 ft | 436 kts | 137° |
| 2026-04-15 13:14 | 53.15027 | -3.10898 | 25157 ft | 437 kts | 137° |
| 2026-04-15 13:14 | 53.13000 | -3.07094 | 25158 ft | 436 kts | 137° |
| 2026-04-15 13:14 | 53.11003 | -3.03339 | 25124 ft | 435 kts | 138° |
| 2026-04-15 13:15 | 53.08986 | -2.99550 | 25146 ft | 435 kts | 138° |
| 2026-04-15 13:15 | 53.06987 | -2.95829 | 25151 ft | 437 kts | 139° |
| 2026-04-15 13:15 | 53.04948 | -2.92051 | 25154 ft | 437 kts | 138° |
| 2026-04-15 13:15 | 53.02923 | -2.88290 | 25161 ft | 436 kts | 138° |
| 2026-04-15 13:16 | 53.00906 | -2.84542 | 25157 ft | 436 kts | 138° |
| 2026-04-15 13:16 | 52.98900 | -2.80816 | 25180 ft | 435 kts | 138° |
| 2026-04-15 13:16 | 52.96864 | -2.77040 | 25173 ft | 436 kts | 139° |
| 2026-04-15 13:16 | 52.94840 | -2.73278 | 25175 ft | 436 kts | 139° |
| 2026-04-15 13:17 | 52.92821 | -2.69546 | 25180 ft | 436 kts | 139° |
| 2026-04-15 13:17 | 52.90795 | -2.65816 | 25181 ft | 436 kts | 139° |
| 2026-04-15 13:17 | 52.88773 | -2.62102 | 25180 ft | 435 kts | 139° |
| 2026-04-15 13:17 | 52.86740 | -2.58378 | 25180 ft | 435 kts | 139° |
| 2026-04-15 13:18 | 52.84715 | -2.54678 | 25182 ft | 435 kts | 139° |
| 2026-04-15 13:18 | 52.82628 | -2.51085 | 25116 ft | 431 kts | 144° |
| 2026-04-15 13:18 | 52.80325 | -2.47861 | 25154 ft | 429 kts | 148° |
| 2026-04-15 13:18 | 52.77939 | -2.44846 | 25180 ft | 429 kts | 149° |
| 2026-04-15 13:19 | 52.75539 | -2.41980 | 25176 ft | 428 kts | 150° |
| 2026-04-15 13:19 | 52.73111 | -2.39183 | 25213 ft | 426 kts | 152° |
| 2026-04-15 13:19 | 52.70654 | -2.36424 | 25233 ft | 425 kts | 152° |
| 2026-04-15 13:19 | 52.68221 | -2.33737 | 25236 ft | 425 kts | 152° |
| 2026-04-15 13:20 | 52.65747 | -2.31020 | 25233 ft | 425 kts | 152° |
| 2026-04-15 13:20 | 52.63279 | -2.28319 | 25221 ft | 424 kts | 152° |
| 2026-04-15 13:20 | 52.60820 | -2.25631 | 25207 ft | 424 kts | 152° |
| 2026-04-15 13:20 | 52.58358 | -2.22946 | 25206 ft | 424 kts | 152° |
| 2026-04-15 13:21 | 52.55894 | -2.20261 | 25212 ft | 425 kts | 152° |
| 2026-04-15 13:21 | 52.53458 | -2.17610 | 25210 ft | 425 kts | 152° |
| 2026-04-15 13:21 | 52.50993 | -2.14930 | 25209 ft | 425 kts | 152° |
| 2026-04-15 13:21 | 52.48523 | -2.12246 | 25213 ft | 424 kts | 153° |
| 2026-04-15 13:22 | 52.46066 | -2.09580 | 25214 ft | 424 kts | 153° |
| 2026-04-15 13:22 | 52.43600 | -2.06908 | 25217 ft | 423 kts | 153° |
| 2026-04-15 13:22 | 52.41141 | -2.04244 | 25219 ft | 423 kts | 153° |
| 2026-04-15 13:22 | 52.38677 | -2.01579 | 25226 ft | 424 kts | 153° |
| 2026-04-15 13:23 | 52.36214 | -1.98916 | 25239 ft | 424 kts | 153° |
| 2026-04-15 13:23 | 52.33741 | -1.96246 | 25206 ft | 427 kts | 153° |
| 2026-04-15 13:23 | 52.31250 | -1.93564 | 25228 ft | 432 kts | 153° |
| 2026-04-15 13:23 | 52.28701 | -1.90827 | 25238 ft | 435 kts | 153° |
| 2026-04-15 13:24 | 52.26202 | -1.88140 | 25232 ft | 433 kts | 153° |
| 2026-04-15 13:24 | 52.23664 | -1.85408 | 25246 ft | 430 kts | 153° |
| 2026-04-15 13:24 | 52.21178 | -1.82738 | 25247 ft | 430 kts | 153° |
| 2026-04-15 13:24 | 52.18708 | -1.80092 | 25260 ft | 431 kts | 153° |
| 2026-04-15 13:25 | 52.16190 | -1.77402 | 25261 ft | 432 kts | 153° |
| 2026-04-15 13:25 | 52.13679 | -1.74725 | 25250 ft | 432 kts | 153° |
| 2026-04-15 13:25 | 52.11163 | -1.72044 | 25253 ft | 431 kts | 153° |
| 2026-04-15 13:25 | 52.08646 | -1.69362 | 25251 ft | 431 kts | 153° |
| 2026-04-15 13:26 | 52.06134 | -1.66690 | 25260 ft | 431 kts | 153° |
| 2026-04-15 13:26 | 52.03624 | -1.64024 | 25260 ft | 431 kts | 153° |
| 2026-04-15 13:26 | 52.01135 | -1.61381 | 25261 ft | 432 kts | 153° |
| 2026-04-15 13:26 | 51.98592 | -1.58686 | 25269 ft | 432 kts | 153° |
| 2026-04-15 13:27 | 51.96077 | -1.56026 | 25270 ft | 431 kts | 153° |
| 2026-04-15 13:27 | 51.93570 | -1.53378 | 25270 ft | 431 kts | 153° |
| 2026-04-15 13:27 | 51.91078 | -1.50751 | 25272 ft | 431 kts | 153° |
| 2026-04-15 13:27 | 51.88562 | -1.48104 | 25273 ft | 431 kts | 153° |
| 2026-04-15 13:28 | 51.86051 | -1.45466 | 25208 ft | 432 kts | 153° |
| 2026-04-15 13:28 | 51.83526 | -1.42820 | 25239 ft | 435 kts | 153° |
| 2026-04-15 13:28 | 51.80949 | -1.40123 | 25261 ft | 438 kts | 153° |
| 2026-04-15 13:28 | 51.78424 | -1.37479 | 25266 ft | 439 kts | 153° |
| 2026-04-15 13:29 | 51.75854 | -1.34787 | 24696 ft | 431 kts | 153° |
| 2026-04-15 13:29 | 51.73370 | -1.32176 | 24131 ft | 421 kts | 153° |
| 2026-04-15 13:29 | 51.70951 | -1.29637 | 23579 ft | 411 kts | 153° |
| 2026-04-15 13:29 | 51.68585 | -1.27159 | 22954 ft | 402 kts | 154° |
| 2026-04-15 13:30 | 51.66266 | -1.24740 | 22321 ft | 394 kts | 154° |
| 2026-04-15 13:30 | 51.63984 | -1.22367 | 21640 ft | 390 kts | 154° |
| 2026-04-15 13:30 | 51.61682 | -1.19988 | 20861 ft | 391 kts | 153° |
| 2026-04-15 13:30 | 51.59408 | -1.17645 | 20112 ft | 391 kts | 153° |
| 2026-04-15 13:31 | 51.57123 | -1.15291 | 19376 ft | 389 kts | 153° |
| 2026-04-15 13:31 | 51.55609 | -1.13732 | 18883 ft | 387 kts | 153° |
| 2026-04-15 13:31 | 51.53347 | -1.11403 | 18160 ft | 386 kts | 153° |
| 2026-04-15 13:31 | 51.51087 | -1.09076 | 17310 ft | 386 kts | 153° |
| 2026-04-15 13:32 | 51.48810 | -1.06727 | 16441 ft | 384 kts | 153° |
| 2026-04-15 13:32 | 51.46570 | -1.04419 | 15598 ft | 383 kts | 153° |
| 2026-04-15 13:32 | 51.44338 | -1.02120 | 14794 ft | 381 kts | 153° |
| 2026-04-15 13:32 | 51.42119 | -0.99837 | 14001 ft | 379 kts | 153° |
| 2026-04-15 13:33 | 51.39912 | -0.97568 | 13147 ft | 377 kts | 153° |
| 2026-04-15 13:33 | 51.37681 | -0.95283 | 12243 ft | 375 kts | 153° |
| 2026-04-15 13:33 | 51.35517 | -0.93083 | 11423 ft | 373 kts | 153° |
| 2026-04-15 13:33 | 51.33304 | -0.90828 | 10596 ft | 371 kts | 153° |
| 2026-04-15 13:34 | 51.31168 | -0.88650 | 9794 ft | 369 kts | 153° |
| 2026-04-15 13:34 | 51.29012 | -0.86450 | 8920 ft | 367 kts | 153° |
| 2026-04-15 13:34 | 51.26877 | -0.84270 | 8368 ft | 358 kts | 153° |
| 2026-04-15 13:34 | 51.24822 | -0.82163 | 8137 ft | 342 kts | 153° |
| 2026-04-15 13:35 | 51.22839 | -0.80133 | 8054 ft | 341 kts | 153° |
| 2026-04-15 13:35 | 51.20836 | -0.78100 | 8016 ft | 343 kts | 153° |
| 2026-04-15 13:35 | 51.18800 | -0.76038 | 7992 ft | 342 kts | 153° |
| 2026-04-15 13:35 | 51.16837 | -0.74045 | 7981 ft | 324 kts | 153° |
| 2026-04-15 13:36 | 51.15007 | -0.72174 | 7976 ft | 304 kts | 153° |
| 2026-04-15 13:36 | 51.13271 | -0.70397 | 7972 ft | 285 kts | 154° |
| 2026-04-15 13:36 | 51.11619 | -0.68718 | 7672 ft | 277 kts | 154° |
| 2026-04-15 13:36 | 51.10049 | -0.67133 | 7661 ft | 264 kts | 155° |
| 2026-04-15 13:37 | 51.08502 | -0.65586 | 7662 ft | 264 kts | 155° |
| 2026-04-15 13:37 | 51.06989 | -0.63824 | 7665 ft | 272 kts | 144° |
| 2026-04-15 13:37 | 51.05692 | -0.61602 | 7675 ft | 276 kts | 136° |
| 2026-04-15 13:37 | 51.04553 | -0.59125 | 7682 ft | 279 kts | 131° |
| 2026-04-15 13:38 | 51.03527 | -0.56487 | 7702 ft | 283 kts | 127° |
| 2026-04-15 13:38 | 51.02587 | -0.53751 | 7718 ft | 284 kts | 125° |
| 2026-04-15 13:38 | 51.01679 | -0.50922 | 7726 ft | 284 kts | 124° |
| 2026-04-15 13:38 | 51.00802 | -0.48120 | 7728 ft | 284 kts | 124° |
| 2026-04-15 13:39 | 50.99922 | -0.45300 | 7731 ft | 285 kts | 123° |
| 2026-04-15 13:39 | 50.99051 | -0.42509 | 7730 ft | 284 kts | 123° |
| 2026-04-15 13:39 | 50.98170 | -0.39685 | 7729 ft | 283 kts | 123° |
| 2026-04-15 13:39 | 50.97292 | -0.36880 | 7734 ft | 284 kts | 123° |
| 2026-04-15 13:40 | 50.96411 | -0.34068 | 7734 ft | 285 kts | 123° |
| 2026-04-15 13:40 | 50.95534 | -0.31265 | 7737 ft | 285 kts | 123° |
| 2026-04-15 13:40 | 50.94649 | -0.28441 | 7736 ft | 285 kts | 123° |
| 2026-04-15 13:40 | 50.93766 | -0.25632 | 7736 ft | 285 kts | 123° |
| 2026-04-15 13:41 | 50.92882 | -0.22822 | 7735 ft | 285 kts | 124° |
| 2026-04-15 13:41 | 50.91997 | -0.20014 | 7737 ft | 285 kts | 124° |
| 2026-04-15 13:41 | 50.91123 | -0.17223 | 7730 ft | 272 kts | 124° |
| 2026-04-15 13:41 | 50.90307 | -0.14608 | 7626 ft | 260 kts | 124° |
| 2026-04-15 13:42 | 50.89514 | -0.12092 | 7469 ft | 253 kts | 124° |
| 2026-04-15 13:42 | 50.88999 | -0.09404 | 7220 ft | 263 kts | 97° |
| 2026-04-15 13:42 | 50.88993 | -0.09111 | 7189 ft | 265 kts | 94° |
| 2026-04-15 13:43 | 50.89442 | -0.06201 | 6876 ft | 275 kts | 63° |
| 2026-04-15 13:43 | 50.90657 | -0.03987 | 6773 ft | 263 kts | 33° |
| 2026-04-15 13:43 | 50.92275 | -0.02952 | 6672 ft | 243 kts | 0° |
| 2026-04-15 13:43 | 50.93913 | -0.02945 | 6535 ft | 228 kts | 352° |
| 2026-04-15 13:44 | 50.95462 | -0.03014 | 6330 ft | 222 kts | 352° |
| 2026-04-15 13:44 | 50.96998 | -0.02946 | 6048 ft | 220 kts | 356° |
| 2026-04-15 13:44 | 50.98518 | -0.02763 | 5625 ft | 221 kts | 358° |
| 2026-04-15 13:44 | 51.00081 | -0.02543 | 5160 ft | 224 kts | 358° |
| 2026-04-15 13:45 | 51.01628 | -0.02322 | 4724 ft | 225 kts | 358° |
| 2026-04-15 13:45 | 51.03207 | -0.02107 | 4287 ft | 227 kts | 358° |
| 2026-04-15 13:45 | 51.04771 | -0.01906 | 3867 ft | 227 kts | 358° |
| 2026-04-15 13:47 | 51.14767 | -0.00689 | 2704 ft | 198 kts | 355° |
| 2026-04-15 13:47 | 51.16027 | -0.01132 | 2508 ft | 176 kts | 315° |
| 2026-04-15 13:47 | 51.16661 | -0.02574 | 2316 ft | 152 kts | 274° |
| 2026-04-15 13:48 | 51.16760 | -0.04198 | 2139 ft | 143 kts | 259° |
| 2026-04-15 13:48 | 51.16634 | -0.05752 | 2055 ft | 140 kts | 251° |
| 2026-04-15 13:48 | 51.16414 | -0.07246 | 2023 ft | 139 kts | 251° |
| 2026-04-15 13:48 | 51.16219 | -0.08757 | 1927 ft | 141 kts | 251° |
| 2026-04-15 13:49 | 51.16017 | -0.10339 | 1554 ft | 147 kts | 252° |
| 2026-04-15 13:49 | 51.15820 | -0.11930 | 1163 ft | 145 kts | 252° |
| 2026-04-15 13:49 | 51.15594 | -0.13506 | 845 ft | 145 kts | 252° |
| 2026-04-15 13:49 | 51.15345 | -0.15118 | 579 ft | 154 kts | 253° |
| 2026-04-15 13:50 | 51.15138 | -0.16750 | 291 ft | 146 kts | 250° |
| 2026-04-15 13:50 | 51.14907 | -0.18175 | 210 ft | 132 kts | 258° |
| 2026-04-15 13:50 | 51.14750 | -0.19452 | 213 ft | 107 kts | 257° |
| 2026-04-15 13:50 | 51.14661 | -0.20368 | 208 ft | 66 kts | 258° |
| 2026-04-15 13:51 | 51.14690 | -0.20687 | 211 ft | 0 kts | 291° |
| 2026-04-15 13:52 | 51.14697 | -0.20699 | 204 ft | 6 kts | 317° |
| 2026-04-15 13:53 | 51.14762 | -0.20681 | 205 ft | 14 kts | 57° |
| 2026-04-15 13:53 | 51.14800 | -0.20455 | 212 ft | 24 kts | 76° |
| 2026-04-15 13:53 | 51.14836 | -0.20197 | 202 ft | 28 kts | 78° |
| 2026-04-15 13:53 | 51.14880 | -0.19878 | 205 ft | 34 kts | 77° |
| 2026-04-15 13:54 | 51.14940 | -0.19435 | 206 ft | 47 kts | 77° |
| 2026-04-15 13:54 | 51.15014 | -0.18869 | 203 ft | 54 kts | 76° |
| 2026-04-15 13:54 | 51.15091 | -0.18327 | 205 ft | 47 kts | 79° |
| 2026-04-15 13:54 | 51.15193 | -0.18028 | 204 ft | 19 kts | 24° |
| 2026-04-15 13:55 | 51.15246 | -0.17887 | 210 ft | 3 kts | 33° |
| 2026-04-15 13:55 | 51.15258 | -0.17916 | 211 ft | 11 kts | 284° |
| 2026-04-15 13:55 | 51.15242 | -0.18073 | 204 ft | 11 kts | 310° |
| 2026-04-15 13:55 | 51.15299 | -0.18113 | 209 ft | 9 kts | 352° |
| 2026-04-15 13:56 | 51.15359 | -0.18132 | 204 ft | 9 kts | 344° |
| 2026-04-15 13:56 | 51.15421 | -0.18148 | 204 ft | 9 kts | 12° |
| 2026-04-15 13:56 | 51.15465 | -0.18035 | 208 ft | 16 kts | 78° |
| 2026-04-15 13:56 | 51.15504 | -0.17769 | 204 ft | 30 kts | 78° |
| 2026-04-15 13:57 | 51.15569 | -0.17451 | 208 ft | 20 kts | 18° |
| 2026-04-15 13:57 | 51.15664 | -0.17480 | 212 ft | 14 kts | 345° |
| 2026-04-15 13:57 | 51.15749 | -0.17523 | 210 ft | 11 kts | 335° |
| 2026-04-15 13:57 | 51.15814 | -0.17551 | 207 ft | 8 kts | 347° |
| 2026-04-15 13:58 | 51.15830 | -0.17556 | 206 ft | 0 kts | 347° |